sensor_id;sensor_type;location;lat;lon;timestamp;P1;durP1;ratioP1;P2;durP2;ratioP2
10275;SDS011;5183;51.190;6.820;2022-07-29T00:00:09;4.10;;;1.67;;
10275;SDS011;5183;51.190;6.820;2022-07-29T00:02:37;5.83;;;1.83;;
10275;SDS011;5183;51.190;6.820;2022-07-29T00:05:06;6.77;;;1.90;;
10275;SDS011;5183;51.190;6.820;2022-07-29T00:07:34;5.80;;;2.10;;
10275;SDS011;5183;51.190;6.820;2022-07-29T00:10:01;3.07;;;1.60;;
10275;SDS011;5183;51.190;6.820;2022-07-29T00:12:28;2.37;;;1.50;;
10275;SDS011;5183;51.190;6.820;2022-07-29T00:14:55;5.33;;;2.23;;
10275;SDS011;5183;51.190;6.820;2022-07-29T00:17:23;4.60;;;1.60;;
10275;SDS011;5183;51.190;6.820;2022-07-29T00:19:50;4.50;;;1.70;;
10275;SDS011;5183;51.190;6.820;2022-07-29T00:22:20;2.90;;;1.67;;
10275;SDS011;5183;51.190;6.820;2022-07-29T00:24:47;6.43;;;1.90;;
10275;SDS011;5183;51.190;6.820;2022-07-29T00:27:14;5.03;;;1.97;;
10275;SDS011;5183;51.190;6.820;2022-07-29T00:29:41;5.23;;;1.80;;
10275;SDS011;5183;51.190;6.820;2022-07-29T00:32:08;4.00;;;1.87;;
10275;SDS011;5183;51.190;6.820;2022-07-29T00:34:35;3.53;;;1.80;;
10275;SDS011;5183;51.190;6.820;2022-07-29T00:37:21;2.73;;;1.80;;
10275;SDS011;5183;51.190;6.820;2022-07-29T00:39:48;3.97;;;1.80;;
10275;SDS011;5183;51.190;6.820;2022-07-29T00:42:15;5.80;;;1.80;;
10275;SDS011;5183;51.190;6.820;2022-07-29T00:44:43;1.90;;;1.70;;
10275;SDS011;5183;51.190;6.820;2022-07-29T00:47:10;5.07;;;1.87;;
10275;SDS011;5183;51.190;6.820;2022-07-29T00:49:37;3.03;;;1.60;;
10275;SDS011;5183;51.190;6.820;2022-07-29T00:52:05;3.93;;;2.10;;
10275;SDS011;5183;51.190;6.820;2022-07-29T00:54:35;3.47;;;1.90;;
10275;SDS011;5183;51.190;6.820;2022-07-29T00:57:04;5.80;;;1.90;;
10275;SDS011;5183;51.190;6.820;2022-07-29T00:59:33;4.03;;;1.70;;
10275;SDS011;5183;51.190;6.820;2022-07-29T01:02:00;6.90;;;2.00;;
10275;SDS011;5183;51.190;6.820;2022-07-29T01:04:27;3.80;;;1.80;;
10275;SDS011;5183;51.190;6.820;2022-07-29T01:06:54;3.80;;;1.90;;
10275;SDS011;5183;51.190;6.820;2022-07-29T01:09:22;3.70;;;1.70;;
10275;SDS011;5183;51.190;6.820;2022-07-29T01:11:51;5.27;;;2.10;;
10275;SDS011;5183;51.190;6.820;2022-07-29T01:14:18;3.90;;;2.13;;
10275;SDS011;5183;51.190;6.820;2022-07-29T01:16:48;6.47;;;1.93;;
10275;SDS011;5183;51.190;6.820;2022-07-29T01:19:25;5.53;;;2.20;;
10275;SDS011;5183;51.190;6.820;2022-07-29T01:22:14;4.27;;;1.80;;
10275;SDS011;5183;51.190;6.820;2022-07-29T01:24:57;4.37;;;2.00;;
10275;SDS011;5183;51.190;6.820;2022-07-29T01:27:44;2.73;;;1.97;;
10275;SDS011;5183;51.190;6.820;2022-07-29T01:30:22;5.17;;;1.97;;
10275;SDS011;5183;51.190;6.820;2022-07-29T01:32:52;3.93;;;1.90;;
10275;SDS011;5183;51.190;6.820;2022-07-29T01:35:23;5.10;;;1.87;;
10275;SDS011;5183;51.190;6.820;2022-07-29T01:37:55;4.17;;;2.00;;
10275;SDS011;5183;51.190;6.820;2022-07-29T01:40:25;3.77;;;1.90;;
10275;SDS011;5183;51.190;6.820;2022-07-29T01:42:57;5.07;;;2.20;;
10275;SDS011;5183;51.190;6.820;2022-07-29T01:45:28;2.50;;;1.80;;
10275;SDS011;5183;51.190;6.820;2022-07-29T01:48:01;4.23;;;1.90;;
10275;SDS011;5183;51.190;6.820;2022-07-29T01:50:32;4.20;;;2.17;;
10275;SDS011;5183;51.190;6.820;2022-07-29T01:53:02;7.57;;;3.17;;
10275;SDS011;5183;51.190;6.820;2022-07-29T01:55:34;6.93;;;3.27;;
10275;SDS011;5183;51.190;6.820;2022-07-29T01:58:04;6.47;;;2.90;;
10275;SDS011;5183;51.190;6.820;2022-07-29T02:00:34;6.80;;;2.73;;
10275;SDS011;5183;51.190;6.820;2022-07-29T02:03:02;5.70;;;2.67;;
10275;SDS011;5183;51.190;6.820;2022-07-29T02:05:33;5.10;;;2.70;;
10275;SDS011;5183;51.190;6.820;2022-07-29T02:08:02;8.80;;;2.80;;
10275;SDS011;5183;51.190;6.820;2022-07-29T02:10:31;6.40;;;2.10;;
10275;SDS011;5183;51.190;6.820;2022-07-29T02:13:00;4.87;;;2.30;;
10275;SDS011;5183;51.190;6.820;2022-07-29T02:15:29;5.47;;;2.30;;
10275;SDS011;5183;51.190;6.820;2022-07-29T02:18:01;5.03;;;2.43;;
10275;SDS011;5183;51.190;6.820;2022-07-29T02:20:30;6.40;;;2.47;;
10275;SDS011;5183;51.190;6.820;2022-07-29T02:22:58;4.73;;;2.20;;
10275;SDS011;5183;51.190;6.820;2022-07-29T02:25:28;4.80;;;2.10;;
10275;SDS011;5183;51.190;6.820;2022-07-29T02:27:55;5.97;;;1.93;;
10275;SDS011;5183;51.190;6.820;2022-07-29T02:30:25;4.50;;;1.90;;
10275;SDS011;5183;51.190;6.820;2022-07-29T02:32:53;4.07;;;1.77;;
10275;SDS011;5183;51.190;6.820;2022-07-29T02:35:22;4.77;;;1.90;;
10275;SDS011;5183;51.190;6.820;2022-07-29T02:37:50;5.87;;;2.17;;
10275;SDS011;5183;51.190;6.820;2022-07-29T02:40:32;4.57;;;2.07;;
10275;SDS011;5183;51.190;6.820;2022-07-29T02:43:00;5.97;;;2.07;;
10275;SDS011;5183;51.190;6.820;2022-07-29T02:45:29;3.80;;;2.00;;
10275;SDS011;5183;51.190;6.820;2022-07-29T02:47:56;7.37;;;2.20;;
10275;SDS011;5183;51.190;6.820;2022-07-29T02:50:28;3.80;;;2.17;;
10275;SDS011;5183;51.190;6.820;2022-07-29T02:52:59;8.40;;;2.90;;
10275;SDS011;5183;51.190;6.820;2022-07-29T02:55:32;7.47;;;3.13;;
10275;SDS011;5183;51.190;6.820;2022-07-29T02:58:02;5.33;;;2.90;;
10275;SDS011;5183;51.190;6.820;2022-07-29T03:00:36;9.10;;;3.20;;
10275;SDS011;5183;51.190;6.820;2022-07-29T03:03:08;6.53;;;3.10;;
10275;SDS011;5183;51.190;6.820;2022-07-29T03:05:39;4.00;;;3.13;;
10275;SDS011;5183;51.190;6.820;2022-07-29T03:08:07;6.30;;;3.07;;
10275;SDS011;5183;51.190;6.820;2022-07-29T03:10:36;8.13;;;3.40;;
10275;SDS011;5183;51.190;6.820;2022-07-29T03:13:05;4.67;;;2.90;;
10275;SDS011;5183;51.190;6.820;2022-07-29T03:15:33;4.97;;;2.90;;
10275;SDS011;5183;51.190;6.820;2022-07-29T03:18:01;6.10;;;2.30;;
10275;SDS011;5183;51.190;6.820;2022-07-29T03:20:28;7.27;;;2.73;;
10275;SDS011;5183;51.190;6.820;2022-07-29T03:22:57;4.03;;;2.47;;
10275;SDS011;5183;51.190;6.820;2022-07-29T03:25:24;8.07;;;2.37;;
10275;SDS011;5183;51.190;6.820;2022-07-29T03:27:52;4.70;;;2.57;;
10275;SDS011;5183;51.190;6.820;2022-07-29T03:30:18;6.90;;;2.60;;
10275;SDS011;5183;51.190;6.820;2022-07-29T03:32:45;6.33;;;3.20;;
10275;SDS011;5183;51.190;6.820;2022-07-29T03:35:12;9.47;;;3.10;;
10275;SDS011;5183;51.190;6.820;2022-07-29T03:37:41;8.90;;;3.70;;
10275;SDS011;5183;51.190;6.820;2022-07-29T03:40:10;10.67;;;3.50;;
10275;SDS011;5183;51.190;6.820;2022-07-29T03:42:39;10.83;;;3.33;;
10275;SDS011;5183;51.190;6.820;2022-07-29T03:45:09;6.53;;;3.70;;
10275;SDS011;5183;51.190;6.820;2022-07-29T03:47:40;6.53;;;3.57;;
10275;SDS011;5183;51.190;6.820;2022-07-29T03:50:11;5.87;;;3.57;;
10275;SDS011;5183;51.190;6.820;2022-07-29T03:52:41;8.77;;;3.73;;
10275;SDS011;5183;51.190;6.820;2022-07-29T03:55:09;7.10;;;3.70;;
10275;SDS011;5183;51.190;6.820;2022-07-29T03:57:36;5.70;;;3.80;;
10275;SDS011;5183;51.190;6.820;2022-07-29T04:00:06;11.20;;;4.20;;
10275;SDS011;5183;51.190;6.820;2022-07-29T04:02:34;9.90;;;5.37;;
10275;SDS011;5183;51.190;6.820;2022-07-29T04:05:02;8.47;;;3.60;;
10275;SDS011;5183;51.190;6.820;2022-07-29T04:07:29;5.40;;;3.63;;
10275;SDS011;5183;51.190;6.820;2022-07-29T04:09:56;7.97;;;3.80;;
10275;SDS011;5183;51.190;6.820;2022-07-29T04:12:24;9.37;;;4.60;;
10275;SDS011;5183;51.190;6.820;2022-07-29T04:14:51;8.30;;;4.30;;
10275;SDS011;5183;51.190;6.820;2022-07-29T04:17:18;12.93;;;5.23;;
10275;SDS011;5183;51.190;6.820;2022-07-29T04:19:44;10.20;;;5.00;;
10275;SDS011;5183;51.190;6.820;2022-07-29T04:22:11;7.77;;;5.40;;
10275;SDS011;5183;51.190;6.820;2022-07-29T04:24:38;8.80;;;5.10;;
10275;SDS011;5183;51.190;6.820;2022-07-29T04:27:05;8.83;;;5.90;;
10275;SDS011;5183;51.190;6.820;2022-07-29T04:29:33;9.70;;;5.67;;
10275;SDS011;5183;51.190;6.820;2022-07-29T04:32:00;7.30;;;4.30;;
10275;SDS011;5183;51.190;6.820;2022-07-29T04:34:27;7.13;;;3.93;;
10275;SDS011;5183;51.190;6.820;2022-07-29T04:36:54;7.60;;;4.50;;
10275;SDS011;5183;51.190;6.820;2022-07-29T04:39:21;8.83;;;4.43;;
10275;SDS011;5183;51.190;6.820;2022-07-29T04:41:48;6.67;;;4.40;;
10275;SDS011;5183;51.190;6.820;2022-07-29T04:44:15;11.77;;;4.90;;
10275;SDS011;5183;51.190;6.820;2022-07-29T04:46:43;6.30;;;5.10;;
10275;SDS011;5183;51.190;6.820;2022-07-29T04:49:10;8.03;;;5.03;;
10275;SDS011;5183;51.190;6.820;2022-07-29T04:51:38;7.27;;;5.10;;
10275;SDS011;5183;51.190;6.820;2022-07-29T04:54:05;9.70;;;5.27;;
10275;SDS011;5183;51.190;6.820;2022-07-29T04:56:32;6.87;;;4.83;;
10275;SDS011;5183;51.190;6.820;2022-07-29T04:58:59;10.23;;;5.73;;
10275;SDS011;5183;51.190;6.820;2022-07-29T05:01:26;8.13;;;5.03;;
10275;SDS011;5183;51.190;6.820;2022-07-29T05:03:54;6.37;;;4.90;;
10275;SDS011;5183;51.190;6.820;2022-07-29T05:06:21;12.17;;;5.90;;
10275;SDS011;5183;51.190;6.820;2022-07-29T05:08:48;7.70;;;5.67;;
10275;SDS011;5183;51.190;6.820;2022-07-29T05:11:14;9.90;;;5.30;;
10275;SDS011;5183;51.190;6.820;2022-07-29T05:13:41;7.17;;;5.13;;
10275;SDS011;5183;51.190;6.820;2022-07-29T05:16:08;5.90;;;4.70;;
10275;SDS011;5183;51.190;6.820;2022-07-29T05:18:35;7.70;;;4.83;;
10275;SDS011;5183;51.190;6.820;2022-07-29T05:21:04;6.97;;;5.27;;
10275;SDS011;5183;51.190;6.820;2022-07-29T05:23:30;6.80;;;4.80;;
10275;SDS011;5183;51.190;6.820;2022-07-29T05:25:57;10.60;;;5.97;;
10275;SDS011;5183;51.190;6.820;2022-07-29T05:28:24;7.70;;;5.83;;
10275;SDS011;5183;51.190;6.820;2022-07-29T05:30:51;8.23;;;5.60;;
10275;SDS011;5183;51.190;6.820;2022-07-29T05:33:18;7.60;;;4.80;;
10275;SDS011;5183;51.190;6.820;2022-07-29T05:35:45;10.13;;;5.20;;
10275;SDS011;5183;51.190;6.820;2022-07-29T05:38:13;7.70;;;5.00;;
10275;SDS011;5183;51.190;6.820;2022-07-29T05:40:40;6.40;;;4.83;;
10275;SDS011;5183;51.190;6.820;2022-07-29T05:43:07;7.67;;;4.67;;
10275;SDS011;5183;51.190;6.820;2022-07-29T05:45:34;8.10;;;4.60;;
10275;SDS011;5183;51.190;6.820;2022-07-29T05:48:02;6.10;;;4.20;;
10275;SDS011;5183;51.190;6.820;2022-07-29T05:50:29;6.40;;;3.90;;
10275;SDS011;5183;51.190;6.820;2022-07-29T05:52:56;8.57;;;5.00;;
10275;SDS011;5183;51.190;6.820;2022-07-29T05:55:24;9.17;;;6.93;;
10275;SDS011;5183;51.190;6.820;2022-07-29T05:57:51;7.40;;;4.43;;
10275;SDS011;5183;51.190;6.820;2022-07-29T06:00:18;7.93;;;4.80;;
10275;SDS011;5183;51.190;6.820;2022-07-29T06:02:45;5.60;;;3.73;;
10275;SDS011;5183;51.190;6.820;2022-07-29T06:05:12;6.83;;;4.40;;
10275;SDS011;5183;51.190;6.820;2022-07-29T06:07:40;7.60;;;6.00;;
10275;SDS011;5183;51.190;6.820;2022-07-29T06:10:07;8.83;;;5.23;;
10275;SDS011;5183;51.190;6.820;2022-07-29T06:12:35;6.77;;;5.03;;
10275;SDS011;5183;51.190;6.820;2022-07-29T06:15:02;6.17;;;4.70;;
10275;SDS011;5183;51.190;6.820;2022-07-29T06:17:30;17.50;;;15.10;;
10275;SDS011;5183;51.190;6.820;2022-07-29T06:19:57;11.60;;;7.80;;
10275;SDS011;5183;51.190;6.820;2022-07-29T06:22:24;9.23;;;4.83;;
10275;SDS011;5183;51.190;6.820;2022-07-29T06:24:51;7.60;;;5.40;;
10275;SDS011;5183;51.190;6.820;2022-07-29T06:27:17;5.70;;;4.93;;
10275;SDS011;5183;51.190;6.820;2022-07-29T06:29:46;5.57;;;3.90;;
10275;SDS011;5183;51.190;6.820;2022-07-29T06:32:12;8.23;;;3.70;;
10275;SDS011;5183;51.190;6.820;2022-07-29T06:34:39;5.53;;;3.70;;
10275;SDS011;5183;51.190;6.820;2022-07-29T06:37:06;4.47;;;3.40;;
10275;SDS011;5183;51.190;6.820;2022-07-29T06:39:34;4.83;;;3.40;;
10275;SDS011;5183;51.190;6.820;2022-07-29T06:42:01;5.73;;;3.10;;
10275;SDS011;5183;51.190;6.820;2022-07-29T06:44:28;5.33;;;2.93;;
10275;SDS011;5183;51.190;6.820;2022-07-29T06:46:57;4.40;;;3.10;;
10275;SDS011;5183;51.190;6.820;2022-07-29T06:49:24;6.67;;;3.53;;
10275;SDS011;5183;51.190;6.820;2022-07-29T06:51:51;5.80;;;3.37;;
10275;SDS011;5183;51.190;6.820;2022-07-29T06:54:18;5.13;;;3.53;;
10275;SDS011;5183;51.190;6.820;2022-07-29T06:56:45;5.90;;;4.13;;
10275;SDS011;5183;51.190;6.820;2022-07-29T06:59:12;8.50;;;3.73;;
10275;SDS011;5183;51.190;6.820;2022-07-29T07:01:40;5.73;;;4.33;;
10275;SDS011;5183;51.190;6.820;2022-07-29T07:04:10;7.00;;;4.20;;
10275;SDS011;5183;51.190;6.820;2022-07-29T07:06:38;6.53;;;3.77;;
10275;SDS011;5183;51.190;6.820;2022-07-29T07:09:05;7.40;;;4.40;;
10275;SDS011;5183;51.190;6.820;2022-07-29T07:11:32;8.10;;;4.50;;
10275;SDS011;5183;51.190;6.820;2022-07-29T07:13:58;4.87;;;4.13;;
10275;SDS011;5183;51.190;6.820;2022-07-29T07:16:25;8.60;;;5.23;;
10275;SDS011;5183;51.190;6.820;2022-07-29T07:18:52;6.80;;;4.33;;
10275;SDS011;5183;51.190;6.820;2022-07-29T07:21:20;7.23;;;4.50;;
10275;SDS011;5183;51.190;6.820;2022-07-29T07:23:47;9.40;;;4.93;;
10275;SDS011;5183;51.190;6.820;2022-07-29T07:26:14;6.77;;;4.23;;
10275;SDS011;5183;51.190;6.820;2022-07-29T07:28:41;7.43;;;4.33;;
10275;SDS011;5183;51.190;6.820;2022-07-29T07:31:08;6.43;;;4.73;;
10275;SDS011;5183;51.190;6.820;2022-07-29T07:33:35;7.70;;;4.93;;
10275;SDS011;5183;51.190;6.820;2022-07-29T07:36:02;7.80;;;5.00;;
10275;SDS011;5183;51.190;6.820;2022-07-29T07:38:31;6.23;;;4.60;;
10275;SDS011;5183;51.190;6.820;2022-07-29T07:40:57;8.20;;;5.47;;
10275;SDS011;5183;51.190;6.820;2022-07-29T07:43:24;7.30;;;5.13;;
10275;SDS011;5183;51.190;6.820;2022-07-29T07:45:51;7.60;;;5.20;;
10275;SDS011;5183;51.190;6.820;2022-07-29T07:48:18;9.07;;;5.40;;
10275;SDS011;5183;51.190;6.820;2022-07-29T07:50:45;9.77;;;5.57;;
10275;SDS011;5183;51.190;6.820;2022-07-29T07:53:14;8.53;;;5.50;;
10275;SDS011;5183;51.190;6.820;2022-07-29T07:55:42;8.40;;;5.43;;
10275;SDS011;5183;51.190;6.820;2022-07-29T07:58:09;8.73;;;5.60;;
10275;SDS011;5183;51.190;6.820;2022-07-29T08:00:36;8.00;;;5.23;;
10275;SDS011;5183;51.190;6.820;2022-07-29T08:03:03;8.70;;;5.93;;
10275;SDS011;5183;51.190;6.820;2022-07-29T08:05:30;7.43;;;6.10;;
10275;SDS011;5183;51.190;6.820;2022-07-29T08:07:57;6.60;;;5.90;;
10275;SDS011;5183;51.190;6.820;2022-07-29T08:10:24;9.73;;;6.17;;
10275;SDS011;5183;51.190;6.820;2022-07-29T08:13:06;7.70;;;5.63;;
10275;SDS011;5183;51.190;6.820;2022-07-29T08:15:35;10.17;;;6.40;;
10275;SDS011;5183;51.190;6.820;2022-07-29T08:18:04;9.17;;;6.60;;
10275;SDS011;5183;51.190;6.820;2022-07-29T08:20:31;14.10;;;9.97;;
10275;SDS011;5183;51.190;6.820;2022-07-29T08:23:00;12.27;;;8.40;;
10275;SDS011;5183;51.190;6.820;2022-07-29T08:25:27;14.80;;;6.97;;
10275;SDS011;5183;51.190;6.820;2022-07-29T08:27:54;12.60;;;6.60;;
10275;SDS011;5183;51.190;6.820;2022-07-29T08:30:23;7.80;;;6.23;;
10275;SDS011;5183;51.190;6.820;2022-07-29T08:32:50;8.00;;;6.53;;
10275;SDS011;5183;51.190;6.820;2022-07-29T08:35:18;7.47;;;6.03;;
10275;SDS011;5183;51.190;6.820;2022-07-29T08:37:45;7.53;;;5.27;;
10275;SDS011;5183;51.190;6.820;2022-07-29T08:40:12;7.63;;;6.07;;
10275;SDS011;5183;51.190;6.820;2022-07-29T08:42:39;8.80;;;5.90;;
10275;SDS011;5183;51.190;6.820;2022-07-29T08:45:07;8.93;;;6.30;;
10275;SDS011;5183;51.190;6.820;2022-07-29T08:47:37;10.80;;;5.83;;
10275;SDS011;5183;51.190;6.820;2022-07-29T08:50:05;8.27;;;5.80;;
10275;SDS011;5183;51.190;6.820;2022-07-29T08:52:35;9.00;;;6.10;;
10275;SDS011;5183;51.190;6.820;2022-07-29T08:55:03;9.93;;;5.67;;
10275;SDS011;5183;51.190;6.820;2022-07-29T08:57:31;9.10;;;5.80;;
10275;SDS011;5183;51.190;6.820;2022-07-29T09:00:00;8.20;;;5.87;;
10275;SDS011;5183;51.190;6.820;2022-07-29T09:02:29;8.97;;;5.63;;
10275;SDS011;5183;51.190;6.820;2022-07-29T09:05:03;11.67;;;5.97;;
10275;SDS011;5183;51.190;6.820;2022-07-29T09:07:31;8.17;;;5.73;;
10275;SDS011;5183;51.190;6.820;2022-07-29T09:09:58;7.03;;;5.50;;
10275;SDS011;5183;51.190;6.820;2022-07-29T09:12:26;6.63;;;5.40;;
10275;SDS011;5183;51.190;6.820;2022-07-29T09:14:53;7.67;;;5.20;;
10275;SDS011;5183;51.190;6.820;2022-07-29T09:20:11;8.03;;;5.03;;
10275;SDS011;5183;51.190;6.820;2022-07-29T09:22:39;7.13;;;4.60;;
10275;SDS011;5183;51.190;6.820;2022-07-29T09:25:06;7.80;;;4.00;;
10275;SDS011;5183;51.190;6.820;2022-07-29T09:27:33;5.83;;;3.60;;
10275;SDS011;5183;51.190;6.820;2022-07-29T09:30:02;6.40;;;4.00;;
10275;SDS011;5183;51.190;6.820;2022-07-29T09:32:31;7.90;;;3.70;;
10275;SDS011;5183;51.190;6.820;2022-07-29T09:35:14;7.17;;;3.63;;
10275;SDS011;5183;51.190;6.820;2022-07-29T09:37:46;6.97;;;4.10;;
10275;SDS011;5183;51.190;6.820;2022-07-29T09:40:14;8.60;;;4.20;;
10275;SDS011;5183;51.190;6.820;2022-07-29T09:42:42;6.37;;;3.87;;
10275;SDS011;5183;51.190;6.820;2022-07-29T09:45:09;7.93;;;4.00;;
10275;SDS011;5183;51.190;6.820;2022-07-29T09:47:41;7.70;;;3.70;;
10275;SDS011;5183;51.190;6.820;2022-07-29T09:50:12;5.83;;;3.93;;
10275;SDS011;5183;51.190;6.820;2022-07-29T09:52:48;6.63;;;4.07;;
10275;SDS011;5183;51.190;6.820;2022-07-29T09:55:16;6.90;;;4.00;;
10275;SDS011;5183;51.190;6.820;2022-07-29T09:57:44;8.33;;;3.93;;
10275;SDS011;5183;51.190;6.820;2022-07-29T10:00:12;9.13;;;4.33;;
10275;SDS011;5183;51.190;6.820;2022-07-29T10:02:41;7.53;;;4.40;;
10275;SDS011;5183;51.190;6.820;2022-07-29T10:05:16;7.00;;;3.90;;
10275;SDS011;5183;51.190;6.820;2022-07-29T10:07:47;6.03;;;3.97;;
10275;SDS011;5183;51.190;6.820;2022-07-29T10:10:20;9.00;;;4.27;;
10275;SDS011;5183;51.190;6.820;2022-07-29T10:12:48;6.57;;;4.13;;
10275;SDS011;5183;51.190;6.820;2022-07-29T10:15:17;6.07;;;3.77;;
10275;SDS011;5183;51.190;6.820;2022-07-29T10:17:45;7.30;;;3.50;;
10275;SDS011;5183;51.190;6.820;2022-07-29T10:20:14;6.43;;;4.10;;
10275;SDS011;5183;51.190;6.820;2022-07-29T10:22:42;6.33;;;4.07;;
10275;SDS011;5183;51.190;6.820;2022-07-29T10:25:10;6.53;;;3.90;;
10275;SDS011;5183;51.190;6.820;2022-07-29T10:27:37;5.70;;;3.73;;
10275;SDS011;5183;51.190;6.820;2022-07-29T10:30:05;4.50;;;3.43;;
10275;SDS011;5183;51.190;6.820;2022-07-29T10:32:35;7.73;;;3.77;;
10275;SDS011;5183;51.190;6.820;2022-07-29T10:35:18;7.40;;;3.50;;
10275;SDS011;5183;51.190;6.820;2022-07-29T10:40:57;7.37;;;3.80;;
10275;SDS011;5183;51.190;6.820;2022-07-29T10:43:51;6.67;;;3.27;;
10275;SDS011;5183;51.190;6.820;2022-07-29T10:46:19;5.10;;;3.37;;
10275;SDS011;5183;51.190;6.820;2022-07-29T10:54:36;8.00;;;4.20;;
10275;SDS011;5183;51.190;6.820;2022-07-29T10:57:20;6.43;;;4.00;;
10275;SDS011;5183;51.190;6.820;2022-07-29T10:59:51;6.07;;;3.80;;
10275;SDS011;5183;51.190;6.820;2022-07-29T11:02:43;5.63;;;3.70;;
10275;SDS011;5183;51.190;6.820;2022-07-29T11:05:13;7.63;;;3.37;;
10275;SDS011;5183;51.190;6.820;2022-07-29T11:10:48;4.23;;;3.00;;
10275;SDS011;5183;51.190;6.820;2022-07-29T11:16:16;7.47;;;3.53;;
10275;SDS011;5183;51.190;6.820;2022-07-29T11:21:47;6.30;;;3.40;;
10275;SDS011;5183;51.190;6.820;2022-07-29T11:24:17;5.10;;;2.97;;
10275;SDS011;5183;51.190;6.820;2022-07-29T11:26:46;4.40;;;3.17;;
10275;SDS011;5183;51.190;6.820;2022-07-29T11:29:47;7.20;;;3.37;;
10275;SDS011;5183;51.190;6.820;2022-07-29T11:32:16;6.67;;;3.00;;
10275;SDS011;5183;51.190;6.820;2022-07-29T11:34:45;5.47;;;2.60;;
10275;SDS011;5183;51.190;6.820;2022-07-29T11:37:16;6.53;;;3.20;;
10275;SDS011;5183;51.190;6.820;2022-07-29T11:39:45;5.87;;;2.90;;
10275;SDS011;5183;51.190;6.820;2022-07-29T11:45:06;5.23;;;2.80;;
10275;SDS011;5183;51.190;6.820;2022-07-29T11:47:34;4.73;;;2.80;;
10275;SDS011;5183;51.190;6.820;2022-07-29T11:50:03;5.93;;;2.87;;
10275;SDS011;5183;51.190;6.820;2022-07-29T11:52:32;2.60;;;2.13;;
10275;SDS011;5183;51.190;6.820;2022-07-29T11:55:02;6.17;;;2.40;;
10275;SDS011;5183;51.190;6.820;2022-07-29T11:57:31;4.17;;;2.13;;
10275;SDS011;5183;51.190;6.820;2022-07-29T11:59:59;5.27;;;2.77;;
10275;SDS011;5183;51.190;6.820;2022-07-29T12:02:38;4.30;;;2.70;;
10275;SDS011;5183;51.190;6.820;2022-07-29T12:05:07;6.30;;;2.67;;
10275;SDS011;5183;51.190;6.820;2022-07-29T12:07:36;4.63;;;2.63;;
10275;SDS011;5183;51.190;6.820;2022-07-29T12:10:05;5.60;;;2.73;;
10275;SDS011;5183;51.190;6.820;2022-07-29T12:12:33;4.67;;;2.80;;
10275;SDS011;5183;51.190;6.820;2022-07-29T12:15:14;4.20;;;3.00;;
10275;SDS011;5183;51.190;6.820;2022-07-29T12:17:45;6.30;;;3.07;;
10275;SDS011;5183;51.190;6.820;2022-07-29T12:20:12;11.90;;;4.00;;
10275;SDS011;5183;51.190;6.820;2022-07-29T12:22:42;6.70;;;4.50;;
10275;SDS011;5183;51.190;6.820;2022-07-29T12:25:10;9.37;;;4.40;;
10275;SDS011;5183;51.190;6.820;2022-07-29T12:27:40;10.13;;;4.63;;
10275;SDS011;5183;51.190;6.820;2022-07-29T12:30:08;8.80;;;4.90;;
10275;SDS011;5183;51.190;6.820;2022-07-29T12:32:37;9.37;;;5.07;;
10275;SDS011;5183;51.190;6.820;2022-07-29T12:35:07;9.27;;;5.10;;
10275;SDS011;5183;51.190;6.820;2022-07-29T12:37:35;8.70;;;4.40;;
10275;SDS011;5183;51.190;6.820;2022-07-29T12:40:05;8.60;;;4.53;;
10275;SDS011;5183;51.190;6.820;2022-07-29T12:42:32;6.27;;;3.80;;
10275;SDS011;5183;51.190;6.820;2022-07-29T12:45:00;9.37;;;4.00;;
10275;SDS011;5183;51.190;6.820;2022-07-29T12:47:27;8.87;;;4.37;;
10275;SDS011;5183;51.190;6.820;2022-07-29T12:50:08;8.43;;;4.27;;
10275;SDS011;5183;51.190;6.820;2022-07-29T12:52:36;11.77;;;5.80;;
10275;SDS011;5183;51.190;6.820;2022-07-29T12:55:03;7.60;;;4.50;;
10275;SDS011;5183;51.190;6.820;2022-07-29T12:57:31;7.60;;;4.50;;
10275;SDS011;5183;51.190;6.820;2022-07-29T13:00:11;11.37;;;5.10;;
10275;SDS011;5183;51.190;6.820;2022-07-29T13:02:39;10.47;;;5.43;;
10275;SDS011;5183;51.190;6.820;2022-07-29T13:05:09;11.43;;;5.47;;
10275;SDS011;5183;51.190;6.820;2022-07-29T13:07:37;11.93;;;5.47;;
10275;SDS011;5183;51.190;6.820;2022-07-29T13:10:12;11.17;;;5.23;;
10275;SDS011;5183;51.190;6.820;2022-07-29T13:15:30;9.87;;;5.17;;
10275;SDS011;5183;51.190;6.820;2022-07-29T13:17:58;7.30;;;4.30;;
10275;SDS011;5183;51.190;6.820;2022-07-29T13:20:27;8.20;;;4.30;;
10275;SDS011;5183;51.190;6.820;2022-07-29T13:22:55;8.27;;;4.20;;
10275;SDS011;5183;51.190;6.820;2022-07-29T13:25:23;6.77;;;3.77;;
10275;SDS011;5183;51.190;6.820;2022-07-29T13:27:51;9.23;;;3.93;;
10275;SDS011;5183;51.190;6.820;2022-07-29T13:30:19;6.13;;;3.67;;
10275;SDS011;5183;51.190;6.820;2022-07-29T13:32:46;6.13;;;3.73;;
10275;SDS011;5183;51.190;6.820;2022-07-29T13:35:13;8.20;;;4.30;;
10275;SDS011;5183;51.190;6.820;2022-07-29T13:37:41;8.40;;;4.60;;
10275;SDS011;5183;51.190;6.820;2022-07-29T13:40:09;6.75;;;3.53;;
10275;SDS011;5183;51.190;6.820;2022-07-29T13:42:37;6.07;;;3.73;;
10275;SDS011;5183;51.190;6.820;2022-07-29T13:45:04;8.93;;;4.67;;
10275;SDS011;5183;51.190;6.820;2022-07-29T13:47:32;8.53;;;4.50;;
10275;SDS011;5183;51.190;6.820;2022-07-29T13:50:00;7.65;;;4.10;;
10275;SDS011;5183;51.190;6.820;2022-07-29T13:52:26;7.13;;;3.55;;
10275;SDS011;5183;51.190;6.820;2022-07-29T13:54:55;8.50;;;3.75;;
10275;SDS011;5183;51.190;6.820;2022-07-29T13:57:22;9.13;;;3.90;;
10275;SDS011;5183;51.190;6.820;2022-07-29T13:59:49;9.38;;;3.70;;
10275;SDS011;5183;51.190;6.820;2022-07-29T14:02:16;7.70;;;3.88;;
10275;SDS011;5183;51.190;6.820;2022-07-29T14:04:43;5.57;;;3.40;;
10275;SDS011;5183;51.190;6.820;2022-07-29T14:07:10;8.73;;;3.47;;
10275;SDS011;5183;51.190;6.820;2022-07-29T14:09:37;8.50;;;3.72;;
10275;SDS011;5183;51.190;6.820;2022-07-29T14:12:06;7.63;;;3.80;;
10275;SDS011;5183;51.190;6.820;2022-07-29T14:14:33;8.18;;;4.07;;
10275;SDS011;5183;51.190;6.820;2022-07-29T14:17:01;8.43;;;4.10;;
10275;SDS011;5183;51.190;6.820;2022-07-29T14:19:31;6.68;;;3.47;;
10275;SDS011;5183;51.190;6.820;2022-07-29T14:22:00;8.85;;;3.97;;
10275;SDS011;5183;51.190;6.820;2022-07-29T14:24:28;6.93;;;3.35;;
10275;SDS011;5183;51.190;6.820;2022-07-29T14:26:55;6.57;;;3.30;;
10275;SDS011;5183;51.190;6.820;2022-07-29T14:29:24;8.60;;;3.53;;
10275;SDS011;5183;51.190;6.820;2022-07-29T14:31:51;8.32;;;3.55;;
10275;SDS011;5183;51.190;6.820;2022-07-29T14:34:18;5.97;;;3.20;;
10275;SDS011;5183;51.190;6.820;2022-07-29T14:36:45;7.25;;;3.50;;
10275;SDS011;5183;51.190;6.820;2022-07-29T14:39:12;10.80;;;4.18;;
10275;SDS011;5183;51.190;6.820;2022-07-29T14:41:40;10.15;;;5.35;;
10275;SDS011;5183;51.190;6.820;2022-07-29T14:44:07;11.05;;;5.47;;
10275;SDS011;5183;51.190;6.820;2022-07-29T14:46:35;10.68;;;5.57;;
10275;SDS011;5183;51.190;6.820;2022-07-29T14:49:02;13.25;;;5.25;;
10275;SDS011;5183;51.190;6.820;2022-07-29T14:51:30;10.57;;;5.32;;
10275;SDS011;5183;51.190;6.820;2022-07-29T14:53:57;6.00;;;3.88;;
10275;SDS011;5183;51.190;6.820;2022-07-29T14:56:24;9.52;;;4.60;;
10275;SDS011;5183;51.190;6.820;2022-07-29T14:58:52;10.95;;;4.00;;
10275;SDS011;5183;51.190;6.820;2022-07-29T15:01:18;9.40;;;4.28;;
10275;SDS011;5183;51.190;6.820;2022-07-29T15:03:47;10.35;;;4.47;;
10275;SDS011;5183;51.190;6.820;2022-07-29T15:06:14;6.50;;;3.10;;
10275;SDS011;5183;51.190;6.820;2022-07-29T15:08:41;7.07;;;3.80;;
10275;SDS011;5183;51.190;6.820;2022-07-29T15:11:07;9.50;;;4.00;;
10275;SDS011;5183;51.190;6.820;2022-07-29T15:13:34;9.55;;;4.63;;
10275;SDS011;5183;51.190;6.820;2022-07-29T15:16:01;10.48;;;3.70;;
10275;SDS011;5183;51.190;6.820;2022-07-29T15:18:28;6.85;;;3.90;;
10275;SDS011;5183;51.190;6.820;2022-07-29T15:20:57;6.97;;;3.50;;
10275;SDS011;5183;51.190;6.820;2022-07-29T15:23:25;7.90;;;4.18;;
10275;SDS011;5183;51.190;6.820;2022-07-29T15:25:52;12.20;;;5.10;;
10275;SDS011;5183;51.190;6.820;2022-07-29T15:28:19;8.38;;;4.10;;
10275;SDS011;5183;51.190;6.820;2022-07-29T15:30:45;7.25;;;4.22;;
10275;SDS011;5183;51.190;6.820;2022-07-29T15:33:13;11.43;;;4.85;;
10275;SDS011;5183;51.190;6.820;2022-07-29T15:35:39;8.32;;;3.90;;